Etusivu
METAR-TAF:

METAR-TAF

Lentoasemat :

Anderson, Indiana, Yhdysvallat

Leveyspiiri: 40-07N, Pituuspiiri: 085-37W, korkeus merenpinnasta: 280 m

Tämänhetkinen sää

Tämä raportti tehtiin 2 tuntia ja 38 minuuttia sitten, kello 14.59 UTC
Tuuli 8 kn etelästä/lounaasta
Lämpötila 0°C
Kosteus 51%
Ilmanpaine 1029 hPa
Näkyvyys: 16.1 km
selkeää

METAR: KAID 221459Z 20008KT 10SM CLR 00/M09 A3038

Aika: 12:37 (17:37 UTC)


TAF: puuttuu

Säähavainnot ja -ennusteet yli 4000 lentoasemalta (METAR- ja TAF-raportit).

Käytössä olevat sääasemat on merkitty karttaan keltaisilla ja punaisilla pisteillä.

Aseta hiiri pisteen päälle nähdäksesi sääaseman nimen.

Klikkaa sitten nähdäksesi säähavainnot ja -ennusteet.

Kartan vaihtaminen: klikkaa mustalla rastilla varustettuja vihreitä pisteitä, niin voit zoomata sisään; viivalla varustettua vihreää pistettä, niin voit zoomata ulos tai vihreitä nuolia, niin pääset viereisille kartoille.


METAR-TAF: